createdAt,value
2023-05-20T00:01:16.080Z,17.06
2023-05-20T00:03:46.468Z,17.16
2023-05-20T00:06:14.767Z,17.20
2023-05-20T00:08:42.817Z,17.24
2023-05-20T00:11:11.434Z,17.31
2023-05-20T00:13:40.181Z,17.34
2023-05-20T00:16:08.434Z,17.38
2023-05-20T00:18:36.513Z,17.48
2023-05-20T00:21:06.079Z,17.49
2023-05-20T00:23:34.262Z,17.53
2023-05-20T00:26:02.271Z,17.52
2023-05-20T00:28:30.764Z,17.59
2023-05-20T00:30:58.829Z,17.61
2023-05-20T00:33:26.949Z,17.63
2023-05-20T00:35:55.095Z,17.58
2023-05-20T00:38:24.617Z,17.61
2023-05-20T00:40:52.716Z,17.56
2023-05-20T00:43:20.837Z,17.60
2023-05-20T00:45:49.174Z,17.55
2023-05-20T00:48:17.447Z,17.60
2023-05-20T00:50:45.814Z,17.63
2023-05-20T00:53:14.128Z,17.65
2023-05-20T00:55:43.734Z,17.69
2023-05-20T00:58:12.495Z,17.70
2023-05-20T01:00:40.727Z,17.73
2023-05-20T01:03:09.607Z,17.75
2023-05-20T01:05:39.846Z,17.77
2023-05-20T01:08:09.618Z,17.74
2023-05-20T01:10:43.229Z,17.74
2023-05-20T01:13:17.191Z,17.68
2023-05-20T01:15:48.452Z,17.68
2023-05-20T01:18:18.610Z,17.65
2023-05-20T01:20:51.021Z,17.67
2023-05-20T01:23:21.938Z,17.66
2023-05-20T01:25:50.003Z,17.64
2023-05-20T01:28:18.300Z,17.65
2023-05-20T01:30:53.034Z,17.65
2023-05-20T01:33:24.167Z,17.67
2023-05-20T01:35:52.691Z,17.68
2023-05-20T01:38:24.568Z,17.70
2023-05-20T01:40:53.846Z,17.75
2023-05-20T01:43:22.561Z,17.76
2023-05-20T01:45:50.818Z,17.73
2023-05-20T01:48:18.849Z,17.78
2023-05-20T01:50:46.894Z,17.78
2023-05-20T01:53:15.108Z,17.84
2023-05-20T01:55:44.599Z,17.88
2023-05-20T01:58:12.808Z,17.92
2023-05-20T02:00:41.041Z,17.95
2023-05-20T02:03:09.242Z,18.00
2023-05-20T02:05:37.698Z,18.02
2023-05-20T02:08:06.969Z,18.02
2023-05-20T02:10:35.080Z,18.07
2023-05-20T02:13:04.576Z,18.09
2023-05-20T02:15:33.771Z,18.11
2023-05-20T02:18:02.551Z,18.15
2023-05-20T02:20:31.040Z,18.18
2023-05-20T02:22:59.267Z,18.17
2023-05-20T02:25:27.451Z,18.21
2023-05-20T02:27:55.631Z,18.20
2023-05-20T02:30:25.062Z,18.23
2023-05-20T02:32:53.363Z,18.24
2023-05-20T02:35:21.450Z,18.27
2023-05-20T02:37:49.496Z,18.29
2023-05-20T02:40:18.058Z,18.28
2023-05-20T02:42:46.805Z,18.34
2023-05-20T02:45:14.903Z,18.34
2023-05-20T02:47:44.722Z,18.37
2023-05-20T02:50:12.903Z,18.37
2023-05-20T02:52:42.646Z,18.37
2023-05-20T02:55:11.409Z,18.39
2023-05-20T02:57:39.822Z,18.41
2023-05-20T03:00:12.033Z,18.42
2023-05-20T03:02:40.359Z,18.43
2023-05-20T03:05:11.067Z,18.42
2023-05-20T03:07:39.521Z,18.38
2023-05-20T03:10:09.406Z,18.37
2023-05-20T03:12:39.494Z,18.34
2023-05-20T03:15:09.236Z,18.29
2023-05-20T03:17:38.243Z,18.27
2023-05-20T03:20:08.458Z,18.23
2023-05-20T03:22:37.927Z,18.19
2023-05-20T03:25:06.993Z,18.13
2023-05-20T03:27:36.910Z,18.05
2023-05-20T03:30:05.994Z,17.92
2023-05-20T03:32:34.084Z,17.89
2023-05-20T03:35:02.295Z,17.85
2023-05-20T03:37:30.425Z,17.81
2023-05-20T03:39:59.956Z,17.81
2023-05-20T03:42:28.103Z,17.78
2023-05-20T03:44:56.339Z,17.78
2023-05-20T03:47:24.637Z,17.70
2023-05-20T03:49:52.880Z,17.65
2023-05-20T03:52:20.995Z,17.61
2023-05-20T03:54:49.129Z,17.60
2023-05-20T03:57:19.775Z,17.61
2023-05-20T03:59:48.103Z,17.58
2023-05-20T04:02:16.323Z,17.51
2023-05-20T04:04:45.633Z,17.49
2023-05-20T04:07:14.709Z,17.48
2023-05-20T04:09:43.747Z,17.41
2023-05-20T04:12:12.372Z,17.39
2023-05-20T04:14:42.281Z,17.31
2023-05-20T04:17:10.675Z,17.26
2023-05-20T04:19:39.307Z,17.23
2023-05-20T04:22:07.589Z,17.17
2023-05-20T04:24:35.826Z,17.20
2023-05-20T04:27:03.998Z,17.20
2023-05-20T04:29:34.364Z,17.19
2023-05-20T04:32:04.352Z,17.19
2023-05-20T04:34:35.251Z,17.20
2023-05-20T04:37:03.532Z,17.23
2023-05-20T04:39:31.625Z,17.23
2023-05-20T04:41:59.758Z,17.19
2023-05-20T04:44:29.908Z,17.20
2023-05-20T04:46:59.607Z,17.25
2023-05-20T04:49:29.937Z,17.30
2023-05-20T04:51:58.616Z,17.31
2023-05-20T04:54:26.687Z,17.36
2023-05-20T04:56:54.808Z,17.37
2023-05-20T04:59:22.809Z,17.38
2023-05-20T05:01:51.966Z,17.41
2023-05-20T05:04:20.134Z,17.46
2023-05-20T05:06:50.778Z,17.47
2023-05-20T05:09:18.838Z,17.51
2023-05-20T05:11:48.039Z,17.54
2023-05-20T05:14:16.251Z,17.59
2023-05-20T05:16:44.641Z,17.65
2023-05-20T05:19:13.723Z,17.73
2023-05-20T05:21:42.397Z,17.79
2023-05-20T05:24:11.989Z,17.83
2023-05-20T05:26:40.057Z,17.79
2023-05-20T05:29:09.789Z,17.84
2023-05-20T05:31:39.704Z,17.94
2023-05-20T05:34:07.784Z,18.03
2023-05-20T05:36:35.886Z,18.08
2023-05-20T05:39:04.822Z,18.11
2023-05-20T05:41:34.439Z,18.15
2023-05-20T05:44:03.409Z,18.20
2023-05-20T05:46:31.740Z,18.27
2023-05-20T05:48:59.861Z,18.34
2023-05-20T05:51:29.186Z,18.41
2023-05-20T05:53:58.435Z,18.48
2023-05-20T05:56:26.490Z,18.53
2023-05-20T05:58:55.976Z,18.58
2023-05-20T06:01:24.211Z,18.69
2023-05-20T06:03:52.276Z,18.79
2023-05-20T06:06:21.451Z,18.83
2023-05-20T06:08:50.014Z,18.97
2023-05-20T06:11:18.076Z,19.06
2023-05-20T06:13:46.156Z,19.11
2023-05-20T06:16:15.782Z,19.18
2023-05-20T06:18:44.152Z,19.22
2023-05-20T06:21:12.416Z,19.21
2023-05-20T06:23:41.087Z,19.22
2023-05-20T06:26:12.032Z,19.30
2023-05-20T06:28:40.476Z,19.40
2023-05-20T06:31:09.513Z,19.51
2023-05-20T06:33:39.707Z,19.67
2023-05-20T06:36:11.518Z,19.82
2023-05-20T06:38:39.644Z,19.82
2023-05-20T06:41:08.003Z,19.80
2023-05-20T06:43:36.043Z,19.86
2023-05-20T06:46:06.284Z,19.95
2023-05-20T06:48:39.228Z,19.99
2023-05-20T06:51:09.748Z,20.05
2023-05-20T06:53:38.360Z,20.17
2023-05-20T06:56:07.373Z,20.20
2023-05-20T06:58:35.433Z,20.26
2023-05-20T07:01:03.618Z,20.35
2023-05-20T07:03:32.095Z,20.48
2023-05-20T07:06:01.612Z,20.55
2023-05-20T07:08:30.128Z,20.63
2023-05-20T07:10:58.188Z,20.72
2023-05-20T07:13:26.507Z,20.92
2023-05-20T07:15:54.695Z,21.32
2023-05-20T07:18:22.833Z,21.74
2023-05-20T07:20:56.880Z,22.16
2023-05-20T07:24:02.096Z,22.65
2023-05-20T07:26:33.603Z,22.66
2023-05-20T07:29:01.985Z,22.90
2023-05-20T07:31:30.058Z,23.17
2023-05-20T07:33:58.289Z,23.35
2023-05-20T07:36:28.020Z,23.53
2023-05-20T07:39:04.240Z,23.74
2023-05-20T07:41:37.552Z,24.06
2023-05-20T07:44:08.749Z,24.21
2023-05-20T07:46:39.979Z,24.30
2023-05-20T07:49:08.932Z,24.40
2023-05-20T07:51:37.204Z,24.42
2023-05-20T07:54:06.421Z,24.51
2023-05-20T07:56:34.610Z,24.61
2023-05-20T07:59:04.405Z,24.69
2023-05-20T08:01:40.259Z,24.89
2023-05-20T08:04:08.472Z,25.13
2023-05-20T08:06:38.541Z,25.40
2023-05-20T08:09:08.078Z,25.52
2023-05-20T08:11:40.455Z,25.49
2023-05-20T08:14:10.235Z,25.71
2023-05-20T08:16:43.629Z,25.80
2023-05-20T08:19:11.870Z,25.66
2023-05-20T08:21:40.273Z,25.50
2023-05-20T08:24:08.322Z,25.58
2023-05-20T08:26:37.663Z,25.63
2023-05-20T08:29:06.454Z,25.83
2023-05-20T08:31:36.174Z,26.01
2023-05-20T08:34:04.602Z,26.15
2023-05-20T08:36:32.973Z,26.16
2023-05-20T08:39:01.083Z,26.21
2023-05-20T08:41:30.179Z,26.24
2023-05-20T08:44:02.118Z,26.31
2023-05-20T08:46:31.284Z,26.28
2023-05-20T08:49:01.924Z,26.27
2023-05-20T08:51:33.409Z,26.25
2023-05-20T08:54:01.573Z,26.37
2023-05-20T08:56:31.154Z,26.55
2023-05-20T08:58:59.350Z,26.50
2023-05-20T09:01:27.444Z,26.49
2023-05-20T09:03:55.579Z,26.56
2023-05-20T09:06:25.163Z,26.75
2023-05-20T09:08:53.240Z,26.78
2023-05-20T09:11:23.117Z,26.86
2023-05-20T09:13:51.741Z,27.02
2023-05-20T09:16:19.852Z,26.91
2023-05-20T09:18:48.116Z,27.04
2023-05-20T09:21:16.372Z,27.02
2023-05-20T09:23:50.546Z,27.22
2023-05-20T09:26:19.389Z,27.59
2023-05-20T09:28:47.854Z,27.73
2023-05-20T09:31:16.093Z,28.09
2023-05-20T09:33:45.146Z,28.39
2023-05-20T09:36:16.385Z,28.28
2023-05-20T09:38:47.563Z,28.31
2023-05-20T09:41:17.153Z,28.47
2023-05-20T09:43:46.269Z,28.52
2023-05-20T09:46:15.077Z,28.52
2023-05-20T09:48:43.980Z,28.39
2023-05-20T09:51:13.899Z,28.50
2023-05-20T09:53:43.098Z,28.67
2023-05-20T09:56:11.506Z,28.85
2023-05-20T09:58:43.137Z,28.84
2023-05-20T10:01:11.536Z,28.90
2023-05-20T10:03:41.954Z,28.64
2023-05-20T10:06:30.060Z,28.86
2023-05-20T10:09:17.120Z,28.99
2023-05-20T10:11:53.113Z,29.17
2023-05-20T10:14:41.890Z,29.36
2023-05-20T10:17:18.244Z,29.26
2023-05-20T10:19:46.512Z,29.38
2023-05-20T10:22:14.690Z,29.59
2023-05-20T10:24:44.360Z,29.43
2023-05-20T10:27:14.818Z,29.16
2023-05-20T10:29:45.482Z,29.16
2023-05-20T10:32:13.788Z,29.26
2023-05-20T10:34:51.803Z,29.26
2023-05-20T10:37:26.421Z,29.63
2023-05-20T10:40:04.141Z,29.39
2023-05-20T10:42:32.203Z,29.22
2023-05-20T10:45:01.716Z,29.01
2023-05-20T10:47:29.950Z,28.70
2023-05-20T10:49:58.225Z,28.93
2023-05-20T10:52:26.698Z,28.93
2023-05-20T10:54:59.560Z,28.58
2023-05-20T10:57:28.350Z,28.29
2023-05-20T10:59:57.102Z,28.68
2023-05-20T11:02:28.898Z,28.90
2023-05-20T11:04:58.233Z,29.02
2023-05-20T11:07:27.861Z,28.90
2023-05-20T11:09:56.071Z,28.90
2023-05-20T11:12:25.403Z,29.27
2023-05-20T11:14:53.598Z,29.71
2023-05-20T11:17:21.980Z,30.18
2023-05-20T11:19:52.123Z,30.44
2023-05-20T11:22:20.172Z,30.42
2023-05-20T11:24:48.399Z,30.52
2023-05-20T11:27:16.801Z,30.83
2023-05-20T11:29:45.034Z,30.82
2023-05-20T11:32:13.712Z,30.59
2023-05-20T11:34:42.673Z,30.66
2023-05-20T11:37:12.736Z,30.86
2023-05-20T11:39:40.965Z,30.95
2023-05-20T11:42:09.143Z,30.93
2023-05-20T11:44:37.470Z,30.46
2023-05-20T11:47:05.920Z,29.97
2023-05-20T11:49:41.118Z,29.90
2023-05-20T11:52:13.481Z,30.10
2023-05-20T11:54:41.552Z,30.19
2023-05-20T11:57:09.583Z,29.93
2023-05-20T11:59:37.723Z,29.50
2023-05-20T12:02:05.813Z,29.74
2023-05-20T12:04:34.020Z,29.94
2023-05-20T12:07:04.104Z,29.90
2023-05-20T12:09:33.607Z,30.13
2023-05-20T12:12:02.792Z,29.93
2023-05-20T12:14:30.870Z,29.46
2023-05-20T12:16:59.889Z,29.23
2023-05-20T12:19:28.107Z,29.29
2023-05-20T12:21:56.329Z,29.35
2023-05-20T12:24:24.352Z,29.15
2023-05-20T12:26:53.836Z,28.85
2023-05-20T12:29:21.854Z,28.97
2023-05-20T12:31:50.008Z,29.22
2023-05-20T12:34:18.119Z,29.05
2023-05-20T12:36:47.294Z,29.28
2023-05-20T12:39:17.738Z,29.65
2023-05-20T12:41:45.875Z,30.09
2023-05-20T12:44:15.319Z,30.33
2023-05-20T12:46:43.820Z,30.36
2023-05-20T12:49:11.975Z,30.46
2023-05-20T12:51:40.033Z,30.75
2023-05-20T12:54:08.081Z,30.93
2023-05-20T12:56:36.176Z,31.22
2023-05-20T12:59:04.245Z,31.37
2023-05-20T13:01:33.807Z,31.43
2023-05-20T13:04:01.982Z,31.45
2023-05-20T13:06:30.110Z,30.87
2023-05-20T13:08:58.224Z,30.82
2023-05-20T13:11:26.324Z,30.74
2023-05-20T13:13:56.626Z,30.44
2023-05-20T13:16:24.916Z,29.97
2023-05-20T13:18:54.451Z,29.61
2023-05-20T13:21:22.621Z,29.32
2023-05-20T13:23:50.699Z,28.94
2023-05-20T13:26:19.122Z,28.74
2023-05-20T13:28:47.329Z,28.70
2023-05-20T13:31:15.421Z,29.29
2023-05-20T13:33:43.542Z,29.53
2023-05-20T13:36:13.867Z,29.35
2023-05-20T13:38:41.968Z,29.02
2023-05-20T13:41:10.104Z,28.76
2023-05-20T13:43:39.209Z,28.68
2023-05-20T13:46:07.326Z,28.65
2023-05-20T13:48:35.414Z,28.53
2023-05-20T13:51:03.586Z,28.37
2023-05-20T13:53:33.038Z,28.16
2023-05-20T13:56:01.271Z,27.95
2023-05-20T13:58:29.350Z,28.12
2023-05-20T14:00:57.417Z,28.63
2023-05-20T14:03:27.490Z,29.16
2023-05-20T14:05:55.984Z,29.18
2023-05-20T14:08:24.213Z,28.82
2023-05-20T14:10:54.989Z,28.31
2023-05-20T14:13:23.540Z,28.11
2023-05-20T14:15:51.727Z,27.89
2023-05-20T14:18:20.604Z,27.80
2023-05-20T14:20:49.252Z,27.73
2023-05-20T14:23:17.350Z,27.66
2023-05-20T14:25:45.437Z,27.43
2023-05-20T14:28:14.881Z,27.20
2023-05-20T14:30:42.930Z,27.11
2023-05-20T14:33:11.145Z,27.07
2023-05-20T14:35:39.297Z,27.09
2023-05-20T14:38:07.347Z,27.19
2023-05-20T14:40:37.286Z,27.36
2023-05-20T14:43:05.622Z,27.54
2023-05-20T14:45:35.176Z,27.58
2023-05-20T14:48:03.273Z,27.52
2023-05-20T14:50:31.505Z,27.34
2023-05-20T14:52:59.544Z,27.09
2023-05-20T14:55:27.611Z,26.87
2023-05-20T14:57:55.697Z,26.78
2023-05-20T15:00:23.800Z,26.70
2023-05-20T15:02:53.386Z,26.51
2023-05-20T15:05:21.599Z,26.61
2023-05-20T15:07:51.031Z,26.48
2023-05-20T15:10:19.099Z,26.41
2023-05-20T15:12:47.327Z,26.24
2023-05-20T15:15:15.442Z,26.10
2023-05-20T15:17:43.778Z,26.04
2023-05-20T15:20:13.788Z,25.96
2023-05-20T15:22:44.219Z,25.89
2023-05-20T15:25:12.408Z,25.77
2023-05-20T15:27:41.859Z,25.72
2023-05-20T15:30:11.157Z,25.57
2023-05-20T15:32:39.989Z,25.51
2023-05-20T15:35:09.124Z,25.50
2023-05-20T15:37:38.558Z,25.40
2023-05-20T15:40:07.885Z,25.48
2023-05-20T15:42:35.932Z,25.51
2023-05-20T15:45:04.269Z,25.57
2023-05-20T15:47:32.334Z,25.48
2023-05-20T15:50:02.452Z,25.57
2023-05-20T15:52:30.781Z,25.57
2023-05-20T15:55:00.255Z,25.61
2023-05-20T15:57:29.310Z,25.65
2023-05-20T15:59:57.453Z,25.67
2023-05-20T16:02:25.773Z,25.80
2023-05-20T16:04:53.941Z,25.93
2023-05-20T16:07:22.001Z,25.99
2023-05-20T16:09:50.052Z,26.01
2023-05-20T16:12:19.509Z,25.98
2023-05-20T16:14:47.798Z,25.93
2023-05-20T16:17:16.810Z,25.91
2023-05-20T16:19:45.023Z,25.80
2023-05-20T16:22:13.506Z,25.75
2023-05-20T16:24:41.696Z,25.67
2023-05-20T16:27:09.783Z,25.60
2023-05-20T16:29:39.843Z,25.52
2023-05-20T16:32:11.052Z,25.45
2023-05-20T16:34:39.143Z,25.47
2023-05-20T16:37:07.208Z,25.46
2023-05-20T16:39:35.264Z,25.50
2023-05-20T16:42:03.782Z,25.53
2023-05-20T16:44:31.829Z,25.57
2023-05-20T16:47:01.273Z,25.50
2023-05-20T16:49:29.742Z,25.52
2023-05-20T16:51:58.590Z,25.47
2023-05-20T16:54:26.985Z,25.39
2023-05-20T16:56:55.054Z,25.40
2023-05-20T16:59:24.861Z,25.24
2023-05-20T17:01:52.941Z,25.13
2023-05-20T17:04:22.373Z,25.15
2023-05-20T17:06:51.289Z,25.06
2023-05-20T17:09:19.510Z,25.05
2023-05-20T17:11:47.631Z,25.09
2023-05-20T17:14:15.848Z,25.05
2023-05-20T17:16:44.009Z,25.02
2023-05-20T17:19:12.165Z,24.94
2023-05-20T17:21:41.703Z,24.79
2023-05-20T17:24:09.732Z,24.65
2023-05-20T17:26:37.792Z,24.60
2023-05-20T17:29:06.030Z,24.50
2023-05-20T17:31:34.108Z,24.42
2023-05-20T17:34:02.243Z,24.43
2023-05-20T17:36:31.486Z,24.44
2023-05-20T17:39:04.289Z,24.41
2023-05-20T17:41:32.418Z,24.35
2023-05-20T17:44:01.505Z,24.36
2023-05-20T17:46:29.609Z,24.31
2023-05-20T17:48:57.870Z,24.31
2023-05-20T17:51:25.912Z,24.24
2023-05-20T17:53:54.180Z,24.17
2023-05-20T17:56:23.967Z,24.21
2023-05-20T17:58:53.350Z,24.21
2023-05-20T18:01:23.492Z,24.18
2023-05-20T18:03:51.850Z,24.19
2023-05-20T18:06:20.061Z,24.23
2023-05-20T18:08:48.837Z,24.13
2023-05-20T18:11:16.889Z,24.01
2023-05-20T18:13:46.316Z,23.95
2023-05-20T18:16:14.450Z,23.91
2023-05-20T18:18:42.574Z,23.89
2023-05-20T18:21:10.722Z,23.91
2023-05-20T18:23:38.749Z,23.90
2023-05-20T18:26:09.179Z,23.77
2023-05-20T18:28:37.281Z,23.75
2023-05-20T18:31:06.827Z,23.75
2023-05-20T18:33:37.020Z,23.60
2023-05-20T18:36:06.821Z,23.54
2023-05-20T18:38:34.861Z,23.52
2023-05-20T18:41:03.017Z,23.44
2023-05-20T18:43:31.216Z,23.43
2023-05-20T18:45:59.401Z,23.39
2023-05-20T18:48:28.906Z,23.34
2023-05-20T18:50:58.694Z,23.29
2023-05-20T18:53:26.886Z,23.29
2023-05-20T18:55:56.050Z,23.24
2023-05-20T18:58:24.190Z,23.20
2023-05-20T19:00:52.309Z,23.13
2023-05-20T19:03:21.355Z,23.13
2023-05-20T19:05:51.040Z,23.09
2023-05-20T19:08:19.255Z,23.00
2023-05-20T19:10:47.355Z,23.00
2023-05-20T19:13:15.681Z,22.95
2023-05-20T19:15:44.007Z,22.96
2023-05-20T19:18:13.544Z,22.99
2023-05-20T19:20:41.578Z,22.95
2023-05-20T19:23:11.121Z,22.92
2023-05-20T19:25:39.214Z,22.88
2023-05-20T19:28:07.289Z,22.82
2023-05-20T19:30:35.542Z,22.75
2023-05-20T19:33:05.857Z,22.71
2023-05-20T19:35:34.908Z,22.63
2023-05-20T19:38:04.975Z,22.62
2023-05-20T19:40:34.548Z,22.58
2023-05-20T19:43:02.724Z,22.61
2023-05-20T19:45:33.631Z,22.56
2023-05-20T19:48:02.048Z,22.47
2023-05-20T19:50:30.437Z,22.49
2023-05-20T19:53:00.491Z,22.49
2023-05-20T19:55:28.673Z,22.50
2023-05-20T19:57:58.102Z,22.42
2023-05-20T20:00:26.354Z,22.34
2023-05-20T20:02:57.017Z,22.22
2023-05-20T20:05:30.681Z,22.11
2023-05-20T20:08:01.779Z,22.04
2023-05-20T20:10:30.980Z,21.93
2023-05-20T20:13:00.489Z,21.84
2023-05-20T20:15:30.476Z,21.75
2023-05-20T20:17:59.184Z,21.68
2023-05-20T20:20:27.802Z,21.61
2023-05-20T20:22:58.945Z,21.57
2023-05-20T20:25:29.868Z,21.50
2023-05-20T20:27:58.027Z,21.49
2023-05-20T20:30:27.782Z,21.46
2023-05-20T20:32:55.883Z,21.39
2023-05-20T20:35:24.399Z,21.35
2023-05-20T20:37:54.346Z,21.31
2023-05-20T20:40:22.628Z,21.30
2023-05-20T20:42:50.728Z,21.29
2023-05-20T20:45:22.683Z,21.31
2023-05-20T20:47:54.761Z,21.30
2023-05-20T20:50:23.026Z,21.28
2023-05-20T20:52:51.041Z,21.28
2023-05-20T20:55:19.478Z,21.27
2023-05-20T20:57:48.044Z,21.30
2023-05-20T21:00:19.008Z,21.29
2023-05-20T21:02:47.212Z,21.28
2023-05-20T21:05:17.628Z,21.28
2023-05-20T21:07:49.719Z,21.25
2023-05-20T21:10:17.970Z,21.27
2023-05-20T21:12:46.101Z,21.27
2023-05-20T21:15:15.081Z,21.28
2023-05-20T21:17:43.257Z,21.30
2023-05-20T21:20:12.680Z,21.27
2023-05-20T21:22:42.092Z,21.23
2023-05-20T21:25:10.873Z,21.21
2023-05-20T21:27:39.005Z,21.18
2023-05-20T21:30:08.295Z,21.15
2023-05-20T21:32:36.401Z,21.11
2023-05-20T21:35:04.869Z,21.10
2023-05-20T21:37:40.802Z,21.13
2023-05-20T21:40:11.220Z,21.13
2023-05-20T21:42:39.336Z,21.09
2023-05-20T21:45:08.974Z,21.06
2023-05-20T21:47:37.187Z,21.06
2023-05-20T21:50:06.188Z,21.08
2023-05-20T21:52:34.312Z,21.11
2023-05-20T21:55:02.427Z,21.14
2023-05-20T21:57:31.796Z,21.14
2023-05-20T21:59:59.884Z,21.13
2023-05-20T22:02:28.060Z,21.16
2023-05-20T22:04:57.744Z,21.11
2023-05-20T22:07:25.799Z,21.08
2023-05-20T22:09:53.887Z,21.06
2023-05-20T22:12:22.869Z,21.08
2023-05-20T22:14:52.364Z,21.15
2023-05-20T22:17:20.526Z,21.16
2023-05-20T22:19:49.909Z,21.19
2023-05-20T22:22:17.996Z,21.18
2023-05-20T22:24:46.050Z,21.20
2023-05-20T22:27:14.210Z,21.19
2023-05-20T22:29:42.258Z,21.20
2023-05-20T22:32:11.693Z,21.19
2023-05-20T22:34:40.149Z,21.19
2023-05-20T22:37:09.316Z,21.14
2023-05-20T22:39:37.637Z,21.11
2023-05-20T22:42:06.419Z,21.15
2023-05-20T22:44:34.703Z,21.10
2023-05-20T22:47:03.028Z,21.13
2023-05-20T22:49:32.795Z,21.10
2023-05-20T22:52:01.703Z,21.10
2023-05-20T22:54:29.974Z,21.10
2023-05-20T22:56:59.393Z,21.11
2023-05-20T22:59:31.169Z,21.14
2023-05-20T23:01:59.514Z,21.15
2023-05-20T23:04:27.867Z,21.16
2023-05-20T23:06:59.432Z,21.17
2023-05-20T23:09:28.112Z,21.14
2023-05-20T23:11:56.354Z,21.11
2023-05-20T23:14:24.694Z,21.09
2023-05-20T23:16:53.104Z,21.05
2023-05-20T23:19:21.471Z,20.99
2023-05-20T23:21:49.733Z,20.95
2023-05-20T23:24:19.457Z,20.92
2023-05-20T23:26:47.818Z,20.88
2023-05-20T23:29:16.352Z,20.84
2023-05-20T23:31:44.787Z,20.81
2023-05-20T23:34:13.162Z,20.78
2023-05-20T23:36:42.725Z,20.76
2023-05-20T23:39:11.010Z,20.74
2023-05-20T23:41:40.716Z,20.72
2023-05-20T23:44:09.045Z,20.72
2023-05-20T23:46:38.109Z,20.74
2023-05-20T23:49:06.850Z,20.71
2023-05-20T23:51:35.734Z,20.66
2023-05-20T23:54:04.074Z,20.59
2023-05-20T23:56:32.365Z,20.51
2023-05-20T23:59:02.118Z,20.43
